createdAt,value
2022-10-07T00:00:27.720Z,52.26
2022-10-07T00:01:27.768Z,52.81
2022-10-07T00:02:27.752Z,63.64
2022-10-07T00:03:27.665Z,65.35
2022-10-07T00:04:27.679Z,60.30
2022-10-07T00:05:27.675Z,52.45
2022-10-07T00:06:27.651Z,64.78
2022-10-07T00:07:27.638Z,52.36
2022-10-07T00:08:27.629Z,51.59
2022-10-07T00:09:27.626Z,52.46
2022-10-07T00:10:27.642Z,53.31
2022-10-07T00:11:27.601Z,66.92
2022-10-07T00:12:27.592Z,53.16
2022-10-07T00:13:27.585Z,46.85
2022-10-07T00:14:27.584Z,57.95
2022-10-07T00:15:27.604Z,49.76
2022-10-07T00:16:27.612Z,61.68
2022-10-07T00:17:27.564Z,56.30
2022-10-07T00:18:27.549Z,45.01
2022-10-07T00:19:27.543Z,64.68
2022-10-07T00:20:27.565Z,57.86
2022-10-07T00:21:27.521Z,59.46
2022-10-07T00:22:27.525Z,55.37
2022-10-07T00:23:27.511Z,65.71
2022-10-07T00:24:27.505Z,58.16
2022-10-07T00:25:27.523Z,43.00
2022-10-07T00:26:27.481Z,41.51
2022-10-07T00:27:27.468Z,47.12
2022-10-07T00:28:27.552Z,65.18
2022-10-07T00:29:27.465Z,61.09
2022-10-07T00:30:27.511Z,59.68
2022-10-07T00:31:27.449Z,62.92
2022-10-07T00:32:27.435Z,50.49
2022-10-07T00:33:27.427Z,58.12
2022-10-07T00:34:27.418Z,63.64
2022-10-07T00:35:27.376Z,60.35
2022-10-07T00:36:27.356Z,55.69
2022-10-07T00:37:27.347Z,52.25
2022-10-07T00:38:27.285Z,49.16
2022-10-07T00:39:27.275Z,56.96
2022-10-07T00:40:27.296Z,49.96
2022-10-07T00:41:27.254Z,65.63
2022-10-07T00:42:27.247Z,58.19
2022-10-07T00:43:27.247Z,53.70
2022-10-07T00:44:27.233Z,55.15
2022-10-07T00:45:27.251Z,57.81
2022-10-07T00:46:27.233Z,52.33
2022-10-07T00:47:27.210Z,61.30
2022-10-07T00:48:27.197Z,56.19
2022-10-07T00:49:27.229Z,52.63
2022-10-07T00:50:27.231Z,64.27
2022-10-07T00:51:27.172Z,64.51
2022-10-07T00:52:27.166Z,58.53
2022-10-07T00:53:27.156Z,47.43
2022-10-07T00:54:27.152Z,51.35
2022-10-07T00:55:27.184Z,53.92
2022-10-07T00:56:27.129Z,56.19
2022-10-07T00:57:27.122Z,59.42
2022-10-07T00:58:27.121Z,50.08
2022-10-07T00:59:27.107Z,42.44
2022-10-07T01:00:27.102Z,56.32
2022-10-07T01:01:27.169Z,56.12
2022-10-07T01:02:27.146Z,50.62
2022-10-07T01:03:27.122Z,43.41
2022-10-07T01:04:27.069Z,57.88
2022-10-07T01:05:27.063Z,60.88
2022-10-07T01:06:27.081Z,53.02
2022-10-07T01:07:27.035Z,42.40
2022-10-07T01:08:27.078Z,48.51
2022-10-07T01:09:27.192Z,51.97
2022-10-07T01:10:27.013Z,60.01
2022-10-07T01:11:27.036Z,46.66
2022-10-07T01:12:26.992Z,56.69
2022-10-07T01:13:26.990Z,64.51
2022-10-07T01:14:26.980Z,59.15
2022-10-07T01:15:26.975Z,64.48
2022-10-07T01:16:27.064Z,54.11
2022-10-07T01:17:26.958Z,52.99
2022-10-07T01:18:26.942Z,63.14
2022-10-07T01:19:26.948Z,60.85
2022-10-07T01:20:26.931Z,63.02
2022-10-07T01:21:26.950Z,64.47
2022-10-07T01:22:26.916Z,57.10
2022-10-07T01:23:26.911Z,57.58
2022-10-07T01:24:26.947Z,60.42
2022-10-07T01:25:26.893Z,54.43
2022-10-07T01:26:26.923Z,70.04
2022-10-07T01:27:26.884Z,56.03
2022-10-07T01:28:26.924Z,43.34
2022-10-07T01:29:26.862Z,62.93
2022-10-07T01:30:26.862Z,59.60
2022-10-07T01:31:26.874Z,44.63
2022-10-07T01:32:26.845Z,57.56
2022-10-07T01:33:26.829Z,43.64
2022-10-07T01:34:26.818Z,49.53
2022-10-07T01:35:26.815Z,53.33
2022-10-07T01:36:26.834Z,55.09
2022-10-07T01:37:26.806Z,66.99
2022-10-07T01:38:26.794Z,62.38
2022-10-07T01:39:26.781Z,53.13
2022-10-07T01:40:26.777Z,48.35
2022-10-07T01:41:26.801Z,49.25
2022-10-07T01:42:26.794Z,64.33
2022-10-07T01:43:26.749Z,56.30
2022-10-07T01:44:26.744Z,57.21
2022-10-07T01:45:26.740Z,55.39
2022-10-07T01:46:26.787Z,59.67
2022-10-07T01:47:26.722Z,44.93
2022-10-07T01:48:26.740Z,50.44
2022-10-07T01:49:26.704Z,55.55
2022-10-07T01:50:26.698Z,52.13
2022-10-07T01:51:26.709Z,65.93
2022-10-07T01:52:27.795Z,54.20
2022-10-07T01:53:26.673Z,48.61
2022-10-07T01:54:27.661Z,66.69
2022-10-07T01:55:26.653Z,50.32
2022-10-07T01:56:26.684Z,51.27
2022-10-07T01:57:26.640Z,55.86
2022-10-07T01:58:26.638Z,54.07
2022-10-07T01:59:26.669Z,44.36
2022-10-07T02:00:26.616Z,43.04
2022-10-07T02:01:26.688Z,52.57
2022-10-07T02:02:26.625Z,54.41
2022-10-07T02:03:26.642Z,42.96
2022-10-07T02:04:26.579Z,47.09
2022-10-07T02:05:26.573Z,61.72
2022-10-07T02:06:26.560Z,61.45
2022-10-07T02:07:26.591Z,62.84
2022-10-07T02:08:26.557Z,64.47
2022-10-07T02:09:26.547Z,56.14
2022-10-07T02:10:26.527Z,61.53
2022-10-07T02:11:26.521Z,49.46
2022-10-07T02:12:26.542Z,61.79
2022-10-07T02:13:26.506Z,64.12
2022-10-07T02:14:26.495Z,67.12
2022-10-07T02:15:26.503Z,58.39
2022-10-07T02:16:26.555Z,52.71
2022-10-07T02:17:26.500Z,60.48
2022-10-07T02:18:26.464Z,56.92
2022-10-07T02:19:26.461Z,43.50
2022-10-07T02:20:26.457Z,58.46
2022-10-07T02:21:26.442Z,63.32
2022-10-07T02:22:26.461Z,51.79
2022-10-07T02:23:26.422Z,52.06
2022-10-07T02:24:26.418Z,62.66
2022-10-07T02:25:26.408Z,56.87
2022-10-07T02:26:26.389Z,55.83
2022-10-07T02:27:26.419Z,62.92
2022-10-07T02:28:26.416Z,58.31
2022-10-07T02:29:26.372Z,62.74
2022-10-07T02:30:26.371Z,54.99
2022-10-07T02:31:26.414Z,64.61
2022-10-07T02:32:26.378Z,59.05
2022-10-07T02:33:26.342Z,65.04
2022-10-07T02:34:26.343Z,60.62
2022-10-07T02:35:26.333Z,53.72
2022-10-07T02:36:26.324Z,63.02
2022-10-07T02:37:26.377Z,63.05
2022-10-07T02:38:26.312Z,59.50
2022-10-07T02:39:26.292Z,54.44
2022-10-07T02:40:26.291Z,66.19
2022-10-07T02:41:26.278Z,67.11
2022-10-07T02:42:26.300Z,58.01
2022-10-07T02:43:26.267Z,52.74
2022-10-07T02:44:26.257Z,51.57
2022-10-07T02:45:27.047Z,52.31
2022-10-07T02:46:27.292Z,62.10
2022-10-07T02:47:26.253Z,61.35
2022-10-07T02:48:26.223Z,62.58
2022-10-07T02:49:26.258Z,61.08
2022-10-07T02:50:26.205Z,55.83
2022-10-07T02:51:26.201Z,59.51
2022-10-07T02:52:26.220Z,52.37
2022-10-07T02:53:26.182Z,62.05
2022-10-07T02:54:26.170Z,55.14
2022-10-07T02:55:26.178Z,61.03
2022-10-07T02:56:26.154Z,55.75
2022-10-07T02:57:26.169Z,63.78
2022-10-07T02:58:26.133Z,63.65
2022-10-07T02:59:26.133Z,66.35
2022-10-07T03:00:26.124Z,63.91
2022-10-07T03:01:26.164Z,67.01
2022-10-07T03:02:26.135Z,55.79
2022-10-07T03:03:26.129Z,66.13
2022-10-07T03:04:26.092Z,59.21
2022-10-07T03:05:26.132Z,52.74
2022-10-07T03:06:26.078Z,52.14
2022-10-07T03:07:26.105Z,65.60
2022-10-07T03:08:26.060Z,64.06
2022-10-07T03:09:26.041Z,65.86
2022-10-07T03:10:26.041Z,66.41
2022-10-07T03:11:26.054Z,63.85
2022-10-07T03:12:26.024Z,63.25
2022-10-07T03:13:26.042Z,62.53
2022-10-07T03:14:26.000Z,61.15
2022-10-07T03:15:25.995Z,66.06
2022-10-07T03:16:26.060Z,63.27
2022-10-07T03:17:25.998Z,61.50
2022-10-07T03:18:26.042Z,65.15
2022-10-07T03:19:25.962Z,69.02
2022-10-07T03:20:25.951Z,59.66
2022-10-07T03:21:25.944Z,58.87
2022-10-07T03:22:25.993Z,60.63
2022-10-07T03:23:25.957Z,68.25
2022-10-07T03:24:25.918Z,60.95
2022-10-07T03:25:25.922Z,63.48
2022-10-07T03:26:25.899Z,69.20
2022-10-07T03:27:26.015Z,67.95
2022-10-07T03:28:25.974Z,58.54
2022-10-07T03:29:25.882Z,69.09
2022-10-07T03:30:25.871Z,68.13
2022-10-07T03:31:25.952Z,63.28
2022-10-07T03:32:25.917Z,70.24
2022-10-07T03:33:25.846Z,68.82
2022-10-07T03:34:25.836Z,66.13
2022-10-07T03:35:25.825Z,68.86
2022-10-07T03:36:25.827Z,65.05
2022-10-07T03:37:26.336Z,66.94
2022-10-07T03:38:25.804Z,67.43
2022-10-07T03:39:25.798Z,68.80
2022-10-07T03:40:25.792Z,66.28
2022-10-07T03:41:25.774Z,64.52
2022-10-07T03:42:25.788Z,70.03
2022-10-07T03:43:25.791Z,66.84
2022-10-07T03:44:25.756Z,65.43
2022-10-07T03:45:25.743Z,68.70
2022-10-07T03:46:25.754Z,67.99
2022-10-07T03:47:25.735Z,55.74
2022-10-07T03:48:25.747Z,67.31
2022-10-07T03:49:25.708Z,65.77
2022-10-07T03:50:25.695Z,67.86
2022-10-07T03:51:25.690Z,65.74
2022-10-07T03:52:25.716Z,67.02
2022-10-07T03:53:25.743Z,62.51
2022-10-07T03:54:25.669Z,63.58
2022-10-07T03:55:25.659Z,71.42
2022-10-07T03:56:25.652Z,67.51
2022-10-07T03:57:25.643Z,66.04
2022-10-07T03:58:25.670Z,70.56
2022-10-07T03:59:25.629Z,65.13
2022-10-07T04:00:25.623Z,66.85
2022-10-07T04:01:25.694Z,67.02
2022-10-07T04:02:25.605Z,68.52
2022-10-07T04:03:25.713Z,70.05
2022-10-07T04:04:25.589Z,63.30
2022-10-07T04:05:25.579Z,61.69
2022-10-07T04:06:25.578Z,70.66
2022-10-07T04:07:25.571Z,60.26
2022-10-07T04:08:25.588Z,55.49
2022-10-07T04:09:25.543Z,71.28
2022-10-07T04:10:25.540Z,69.58
2022-10-07T04:11:25.545Z,65.95
2022-10-07T04:12:25.521Z,68.84
2022-10-07T04:13:25.544Z,69.43
2022-10-07T04:14:25.532Z,69.48
2022-10-07T04:15:25.492Z,66.76
2022-10-07T04:16:25.538Z,70.45
2022-10-07T04:17:25.483Z,69.38
2022-10-07T04:18:25.522Z,66.90
2022-10-07T04:19:25.464Z,68.77
2022-10-07T04:20:25.460Z,70.83
2022-10-07T04:21:25.447Z,72.03
2022-10-07T04:22:25.436Z,66.59
2022-10-07T04:23:25.472Z,65.64
2022-10-07T04:24:25.424Z,66.70
2022-10-07T04:25:25.416Z,73.52
2022-10-07T04:26:25.413Z,69.63
2022-10-07T04:27:50.050Z,66.03
2022-10-07T04:28:27.471Z,65.61
2022-10-07T04:29:25.387Z,71.86
2022-10-07T04:30:25.373Z,67.15
2022-10-07T04:31:25.402Z,66.88
2022-10-07T04:32:25.352Z,71.86
2022-10-07T04:33:25.378Z,66.49
2022-10-07T04:34:25.346Z,67.35
2022-10-07T04:35:25.330Z,71.41
2022-10-07T04:36:25.332Z,68.05
2022-10-07T04:37:25.315Z,72.19
2022-10-07T04:38:28.241Z,68.18
2022-10-07T04:39:42.757Z,63.09
2022-10-07T04:40:27.290Z,68.64
2022-10-07T04:41:25.283Z,71.69
2022-10-07T04:42:25.270Z,68.49
2022-10-07T04:43:25.292Z,63.28
2022-10-07T04:44:25.254Z,68.42
2022-10-07T04:45:25.248Z,69.97
2022-10-07T04:46:25.349Z,70.31
2022-10-07T04:47:25.232Z,70.82
2022-10-07T04:48:25.267Z,68.99
2022-10-07T04:49:25.212Z,67.32
2022-10-07T04:50:25.208Z,70.59
2022-10-07T04:51:25.203Z,72.50
2022-10-07T04:52:25.194Z,71.13
2022-10-07T04:53:25.210Z,64.72
2022-10-07T04:54:25.172Z,70.36
2022-10-07T04:55:25.168Z,70.74
2022-10-07T04:56:25.168Z,65.82
2022-10-07T04:57:25.160Z,68.88
2022-10-07T04:58:25.175Z,67.08
2022-10-07T04:59:28.015Z,70.01
2022-10-07T05:00:26.129Z,71.46
2022-10-07T05:01:25.174Z,70.00
2022-10-07T05:02:25.125Z,67.64
2022-10-07T05:03:25.123Z,72.06
2022-10-07T05:04:25.092Z,67.02
2022-10-07T05:05:25.088Z,72.44
2022-10-07T05:06:25.186Z,67.00
2022-10-07T05:10:31.420Z,66.51
2022-10-07T05:11:31.412Z,70.12
2022-10-07T05:12:31.400Z,70.57
2022-10-07T05:13:31.428Z,71.81
2022-10-07T05:14:31.388Z,71.11
2022-10-07T05:15:31.383Z,72.40
2022-10-07T05:16:31.451Z,70.49
2022-10-07T05:17:31.366Z,71.67
2022-10-07T05:18:31.377Z,71.31
2022-10-07T05:19:31.346Z,70.94
2022-10-07T05:20:31.332Z,69.63
2022-10-07T05:21:31.329Z,68.15
2022-10-07T05:22:31.319Z,74.31
2022-10-07T05:23:31.337Z,72.62
2022-10-07T05:24:31.302Z,71.40
2022-10-07T05:25:31.296Z,69.39
2022-10-07T05:26:32.435Z,67.96
2022-10-07T05:27:32.421Z,72.86
2022-10-07T05:28:32.522Z,69.97
2022-10-07T05:29:32.398Z,73.45
2022-10-07T05:30:32.408Z,70.55
2022-10-07T05:31:32.463Z,71.55
2022-10-07T05:32:32.382Z,70.36
2022-10-07T05:33:32.409Z,73.05
2022-10-07T05:34:32.362Z,72.57
2022-10-07T05:35:32.355Z,72.64
2022-10-07T05:36:32.346Z,70.55
2022-10-07T05:37:32.364Z,69.09
2022-10-07T05:38:32.366Z,67.94
2022-10-07T05:39:32.322Z,73.36
2022-10-07T05:40:32.311Z,69.93
2022-10-07T05:41:32.304Z,68.78
2022-10-07T05:42:32.293Z,72.09
2022-10-07T05:43:32.296Z,70.10
2022-10-07T05:44:32.305Z,72.12
2022-10-07T05:45:32.322Z,68.03
2022-10-07T05:46:32.255Z,66.66
2022-10-07T05:47:33.259Z,68.96
2022-10-07T05:48:36.635Z,72.36
2022-10-07T05:49:34.263Z,74.43
2022-10-07T05:50:32.228Z,73.00
2022-10-07T05:51:32.264Z,70.41
2022-10-07T05:52:32.233Z,70.99
2022-10-07T05:53:32.212Z,72.17
2022-10-07T05:54:32.223Z,68.44
2022-10-07T05:55:35.672Z,67.99
2022-10-07T05:56:33.182Z,67.63
2022-10-07T05:57:32.176Z,65.56
2022-10-07T05:58:32.167Z,71.73
2022-10-07T05:59:32.206Z,70.31
2022-10-07T06:00:32.144Z,64.39
2022-10-07T06:01:32.137Z,69.18
2022-10-07T06:02:33.193Z,73.12
2022-10-07T06:03:32.124Z,73.94
2022-10-07T06:04:32.146Z,68.76
2022-10-07T06:05:32.123Z,64.64
2022-10-07T06:06:32.095Z,72.14
2022-10-07T06:07:32.084Z,71.05
2022-10-07T06:08:32.087Z,71.13
2022-10-07T06:09:32.116Z,71.60
2022-10-07T06:10:32.061Z,69.88
2022-10-07T06:11:32.061Z,66.92
2022-10-07T06:13:04.606Z,69.53
2022-10-07T06:13:32.039Z,66.84
2022-10-07T06:14:32.136Z,67.65
2022-10-07T06:15:32.023Z,72.32
2022-10-07T06:16:32.087Z,68.54
2022-10-07T06:17:32.016Z,70.13
2022-10-07T06:18:32.002Z,67.21
2022-10-07T06:19:32.022Z,65.14
2022-10-07T06:20:31.990Z,65.73
2022-10-07T06:21:31.973Z,70.29
2022-10-07T06:22:31.985Z,71.46
2022-10-07T06:23:31.959Z,70.12
2022-10-07T06:24:31.981Z,65.00
2022-10-07T06:25:31.950Z,68.62
2022-10-07T06:26:31.938Z,68.56
2022-10-07T06:27:31.927Z,64.69
2022-10-07T06:28:31.981Z,65.59
2022-10-07T06:29:31.936Z,71.76
2022-10-07T06:30:31.912Z,72.52
2022-10-07T06:31:31.917Z,64.97
2022-10-07T06:32:31.886Z,69.59
2022-10-07T06:33:31.883Z,71.10
2022-10-07T06:34:31.923Z,63.59
2022-10-07T06:35:31.867Z,63.31
2022-10-07T06:36:31.852Z,64.96
2022-10-07T06:37:31.843Z,66.35
2022-10-07T06:38:31.839Z,67.98
2022-10-07T06:39:31.835Z,58.38
2022-10-07T06:40:31.851Z,69.18
2022-10-07T06:41:31.812Z,71.48
2022-10-07T06:42:31.807Z,71.36
2022-10-07T06:43:31.798Z,67.26
2022-10-07T06:44:31.792Z,67.20
2022-10-07T06:45:31.957Z,68.60
2022-10-07T06:46:31.842Z,71.14
2022-10-07T06:47:31.854Z,70.82
2022-10-07T06:48:31.749Z,68.26
2022-10-07T06:49:31.744Z,68.28
2022-10-07T06:50:31.802Z,72.73
2022-10-07T06:51:31.727Z,66.82
2022-10-07T06:52:31.719Z,57.94
2022-10-07T06:53:31.718Z,67.98
2022-10-07T06:54:32.703Z,68.36
2022-10-07T06:55:31.734Z,69.64
2022-10-07T06:56:31.690Z,64.68
2022-10-07T06:57:45.347Z,69.06
2022-10-07T06:58:34.204Z,68.97
2022-10-07T06:59:31.660Z,66.09
2022-10-07T07:00:31.779Z,60.76
2022-10-07T07:01:31.700Z,67.36
2022-10-07T07:02:32.717Z,72.43
2022-10-07T07:03:31.636Z,70.59
2022-10-07T07:04:31.629Z,59.84
2022-10-07T07:05:31.643Z,67.76
2022-10-07T07:06:31.612Z,66.07
2022-10-07T07:07:31.617Z,72.70
2022-10-07T07:08:31.600Z,66.47
2022-10-07T07:09:31.588Z,65.97
2022-10-07T07:10:31.603Z,69.35
2022-10-07T07:11:31.587Z,70.18
2022-10-07T07:12:31.558Z,68.94
2022-10-07T07:13:31.554Z,66.82
2022-10-07T07:14:31.548Z,69.89
2022-10-07T07:15:31.566Z,70.33
2022-10-07T07:16:31.564Z,69.54
2022-10-07T07:17:31.523Z,67.65
2022-10-07T07:18:31.530Z,72.28
2022-10-07T07:19:31.505Z,70.89
2022-10-07T07:20:31.523Z,67.26
2022-10-07T07:21:31.487Z,66.46
2022-10-07T07:22:31.482Z,67.07
2022-10-07T07:23:31.479Z,64.11
2022-10-07T07:24:31.465Z,69.52
2022-10-07T07:25:31.479Z,69.35
2022-10-07T07:26:31.451Z,68.18
2022-10-07T07:27:31.446Z,71.45
2022-10-07T07:28:31.545Z,70.33
2022-10-07T07:29:31.418Z,63.50
2022-10-07T07:30:31.519Z,63.63
2022-10-07T07:31:31.414Z,68.58
2022-10-07T07:32:31.408Z,70.01
2022-10-07T07:33:31.386Z,68.60
2022-10-07T07:34:31.374Z,71.37
2022-10-07T07:35:31.398Z,68.79
2022-10-07T07:36:31.366Z,71.57
2022-10-07T07:37:31.355Z,72.07
2022-10-07T07:38:31.349Z,66.85
2022-10-07T07:39:31.343Z,70.54
2022-10-07T07:40:31.371Z,73.15
2022-10-07T07:41:31.328Z,68.01
2022-10-07T07:42:31.314Z,69.02
2022-10-07T07:43:31.333Z,69.57
2022-10-07T07:44:34.744Z,70.46
2022-10-07T07:45:32.341Z,69.46
2022-10-07T07:46:31.283Z,68.26
2022-10-07T07:47:31.274Z,70.61
2022-10-07T07:48:31.260Z,65.92
2022-10-07T07:49:31.255Z,67.63
2022-10-07T07:50:31.247Z,72.21
2022-10-07T07:51:31.263Z,63.77
2022-10-07T07:52:31.231Z,57.03
2022-10-07T07:53:31.226Z,67.69
2022-10-07T07:54:31.223Z,72.03
2022-10-07T07:55:31.211Z,68.91
2022-10-07T07:56:31.231Z,67.74
2022-10-07T07:57:31.190Z,67.60
2022-10-07T07:58:31.181Z,65.46
2022-10-07T07:59:31.179Z,69.90
2022-10-07T08:00:31.174Z,60.81
2022-10-07T08:01:31.221Z,64.96
2022-10-07T08:02:31.214Z,69.27
2022-10-07T08:03:31.143Z,66.36
2022-10-07T08:04:31.133Z,71.56
2022-10-07T08:05:31.123Z,69.04
2022-10-07T08:06:31.147Z,68.06
2022-10-07T08:07:31.108Z,68.21
2022-10-07T08:08:31.102Z,67.05
2022-10-07T08:09:31.100Z,68.28
2022-10-07T08:10:31.090Z,66.00
2022-10-07T08:11:31.111Z,67.86
2022-10-07T08:12:31.075Z,69.40
2022-10-07T08:13:31.058Z,63.75
2022-10-07T08:14:31.053Z,67.85
2022-10-07T08:15:31.085Z,71.34
2022-10-07T08:16:31.066Z,71.53
2022-10-07T08:17:31.030Z,66.51
2022-10-07T08:18:31.018Z,68.51
2022-10-07T08:19:31.018Z,68.73
2022-10-07T08:20:31.004Z,69.81
2022-10-07T08:21:31.024Z,65.08
2022-10-07T08:22:30.993Z,63.91
2022-10-07T08:23:30.979Z,69.41
2022-10-07T08:24:34.117Z,68.50
2022-10-07T08:25:30.966Z,67.34
2022-10-07T08:26:30.991Z,65.34
2022-10-07T08:27:30.946Z,68.68
2022-10-07T08:28:31.073Z,71.91
2022-10-07T08:29:30.928Z,69.05
2022-10-07T08:30:30.935Z,63.93
2022-10-07T08:31:30.935Z,68.25
2022-10-07T08:32:30.901Z,71.25
2022-10-07T08:33:30.889Z,68.48
2022-10-07T08:34:30.892Z,67.30
2022-10-07T08:35:30.874Z,61.87
2022-10-07T08:36:30.896Z,71.82
2022-10-07T08:37:30.859Z,69.34
2022-10-07T08:38:30.856Z,69.98
2022-10-07T08:39:30.844Z,71.50
2022-10-07T08:40:30.830Z,71.05
2022-10-07T08:41:30.853Z,65.70
2022-10-07T08:42:30.815Z,67.80
2022-10-07T08:43:30.808Z,64.65
2022-10-07T08:44:30.802Z,70.68
2022-10-07T08:45:30.792Z,71.75
2022-10-07T08:46:30.864Z,68.04
2022-10-07T08:47:30.775Z,64.81
2022-10-07T08:48:30.770Z,67.48
2022-10-07T08:49:30.768Z,66.21
2022-10-07T08:50:30.749Z,71.33
2022-10-07T08:51:30.773Z,70.01
2022-10-07T08:52:30.769Z,69.60
2022-10-07T08:53:49.757Z,70.37
2022-10-07T08:54:30.729Z,65.35
2022-10-07T08:55:30.733Z,60.61
2022-10-07T08:56:30.711Z,69.63
2022-10-07T08:57:30.719Z,69.78
2022-10-07T08:58:30.704Z,66.19
2022-10-07T08:59:30.687Z,65.56
2022-10-07T09:00:30.673Z,67.69
2022-10-07T09:01:30.702Z,69.79
2022-10-07T09:02:30.733Z,65.87
2022-10-07T09:03:30.649Z,68.05
2022-10-07T09:04:30.643Z,67.23
2022-10-07T09:05:30.652Z,69.95
2022-10-07T09:06:30.624Z,69.42
2022-10-07T09:07:30.650Z,67.16
2022-10-07T09:08:30.612Z,69.05
2022-10-07T09:09:30.604Z,66.37
2022-10-07T09:10:30.596Z,65.34
2022-10-07T09:11:30.595Z,68.14
2022-10-07T09:12:30.606Z,66.75
2022-10-07T09:13:30.583Z,69.12
2022-10-07T09:14:30.572Z,70.12
2022-10-07T09:15:30.623Z,64.64
2022-10-07T09:16:30.552Z,69.48
2022-10-07T09:17:34.882Z,65.96
2022-10-07T09:18:31.537Z,68.85
2022-10-07T09:19:30.531Z,67.89
2022-10-07T09:20:30.524Z,70.01
2022-10-07T09:21:30.522Z,68.56
2022-10-07T09:22:30.542Z,68.72
2022-10-07T09:23:30.499Z,67.56
2022-10-07T09:24:30.536Z,65.30
2022-10-07T09:25:30.482Z,58.80
2022-10-07T09:26:30.474Z,65.28
2022-10-07T09:27:30.506Z,70.60
2022-10-07T09:28:30.552Z,61.85
2022-10-07T09:29:30.460Z,67.20
2022-10-07T09:30:30.450Z,67.20
2022-10-07T09:31:30.489Z,67.00
2022-10-07T09:32:30.469Z,67.33
2022-10-07T09:33:30.430Z,63.95
2022-10-07T09:34:30.425Z,65.50
2022-10-07T09:35:30.455Z,69.03
2022-10-07T09:36:30.404Z,68.51
2022-10-07T09:37:30.441Z,67.61
2022-10-07T09:38:30.406Z,65.46
2022-10-07T09:39:30.395Z,67.87
2022-10-07T09:40:30.383Z,70.06
2022-10-07T09:41:31.229Z,66.39
2022-10-07T09:42:31.414Z,67.89
2022-10-07T09:43:30.365Z,69.21
2022-10-07T09:44:30.360Z,66.46
2022-10-07T09:45:36.448Z,68.93
2022-10-07T09:46:43.793Z,66.17
2022-10-07T09:47:31.407Z,66.93
2022-10-07T09:48:30.641Z,69.29
2022-10-07T09:49:30.876Z,69.22
2022-10-07T09:50:31.042Z,70.63
2022-10-07T09:51:32.560Z,74.06
2022-10-07T09:52:31.974Z,67.92
2022-10-07T09:53:37.545Z,57.26
2022-10-07T09:54:31.378Z,68.11
2022-10-07T09:55:31.377Z,63.99
2022-10-07T09:56:30.951Z,64.70
2022-10-07T09:57:31.113Z,75.70
2022-10-07T09:59:04.197Z,65.11
2022-10-07T09:59:31.504Z,67.78
2022-10-07T10:00:30.639Z,66.02
2022-10-07T10:01:30.804Z,69.98
2022-10-07T10:02:30.901Z,63.90
2022-10-07T10:03:30.503Z,58.59
2022-10-07T10:04:30.346Z,67.94
2022-10-07T10:05:30.345Z,67.48
2022-10-07T10:06:30.337Z,66.42
2022-10-07T10:07:30.368Z,70.88
2022-10-07T10:08:30.387Z,66.92
2022-10-07T10:09:30.409Z,68.99
2022-10-07T10:10:30.256Z,66.77
2022-10-07T10:11:32.083Z,67.52
2022-10-07T10:12:30.297Z,67.15
2022-10-07T10:13:30.324Z,68.05
2022-10-07T10:14:49.151Z,69.11
2022-10-07T10:15:30.254Z,67.92
2022-10-07T10:16:30.328Z,66.70
2022-10-07T10:17:30.241Z,68.21
2022-10-07T10:18:30.327Z,68.34
2022-10-07T10:19:34.904Z,69.42
2022-10-07T10:20:32.315Z,66.68
2022-10-07T10:21:30.415Z,67.64
2022-10-07T10:22:30.272Z,68.26
2022-10-07T10:23:30.291Z,71.85
2022-10-07T10:24:30.333Z,68.31
2022-10-07T10:25:31.228Z,68.63
2022-10-07T10:26:33.932Z,67.24
2022-10-07T10:27:31.167Z,70.16
2022-10-07T10:28:30.281Z,62.58
2022-10-07T10:29:30.212Z,67.53
2022-10-07T10:30:30.236Z,67.34
2022-10-07T10:31:30.254Z,66.05
2022-10-07T10:32:30.171Z,67.04
2022-10-07T10:33:30.390Z,63.07
2022-10-07T10:34:30.157Z,66.60
2022-10-07T10:35:30.200Z,69.60
2022-10-07T10:36:30.158Z,67.00
2022-10-07T10:37:30.195Z,64.20
2022-10-07T10:38:30.218Z,65.49
2022-10-07T10:39:30.198Z,64.76
2022-10-07T10:40:30.310Z,70.82
2022-10-07T10:41:30.212Z,66.94
2022-10-07T10:42:31.273Z,66.06
2022-10-07T10:43:30.224Z,67.52
2022-10-07T10:44:30.201Z,65.08
2022-10-07T10:45:30.246Z,68.39
2022-10-07T10:46:30.289Z,64.15
2022-10-07T10:47:30.094Z,60.27
2022-10-07T10:48:30.160Z,67.53
2022-10-07T10:49:30.190Z,65.62
2022-10-07T10:50:30.139Z,70.18
2022-10-07T10:51:30.149Z,69.56
2022-10-07T10:52:30.167Z,66.97
2022-10-07T10:53:30.326Z,64.39
2022-10-07T10:54:30.192Z,66.38
2022-10-07T10:55:30.204Z,67.81
2022-10-07T10:56:30.333Z,68.43
2022-10-07T10:57:30.204Z,66.35
2022-10-07T10:58:30.237Z,63.16
2022-10-07T10:59:30.258Z,63.05
2022-10-07T11:00:30.318Z,65.38
2022-10-07T11:01:30.293Z,65.89
2022-10-07T11:02:30.401Z,69.28
2022-10-07T11:03:33.519Z,62.72
2022-10-07T11:04:31.281Z,65.83
2022-10-07T11:05:30.396Z,69.47
2022-10-07T11:06:30.253Z,70.98
2022-10-07T11:07:31.850Z,67.67
2022-10-07T11:08:33.370Z,69.05
2022-10-07T11:09:33.708Z,64.95
2022-10-07T11:10:44.354Z,67.87
2022-10-07T11:11:30.115Z,65.13
2022-10-07T11:12:30.481Z,67.98
2022-10-07T11:13:38.446Z,69.87
2022-10-07T11:14:30.192Z,68.08
2022-10-07T11:15:30.193Z,66.39
2022-10-07T11:16:30.301Z,65.66
2022-10-07T11:17:30.681Z,65.58
2022-10-07T11:18:31.339Z,69.76
2022-10-07T11:19:34.469Z,70.73
2022-10-07T11:20:30.091Z,69.24
2022-10-07T11:21:30.969Z,66.48
2022-10-07T11:22:29.977Z,63.49
2022-10-07T11:23:29.974Z,68.53
2022-10-07T11:24:30.139Z,66.21
2022-10-07T11:25:29.973Z,69.26
2022-10-07T11:26:32.338Z,64.18
2022-10-07T11:27:31.009Z,67.46
2022-10-07T11:28:30.060Z,64.67
2022-10-07T11:29:29.966Z,67.55
2022-10-07T11:30:29.883Z,69.78
2022-10-07T11:31:30.016Z,69.38
2022-10-07T11:32:29.968Z,70.39
2022-10-07T11:33:30.121Z,66.12
2022-10-07T11:34:29.922Z,68.17
2022-10-07T11:35:30.116Z,67.79
2022-10-07T11:36:30.140Z,69.01
2022-10-07T11:37:30.081Z,67.86
2022-10-07T11:38:30.292Z,68.16
2022-10-07T11:39:30.021Z,65.94
2022-10-07T11:40:30.029Z,61.43
2022-10-07T11:41:30.257Z,67.40
2022-10-07T11:42:30.521Z,68.00
2022-10-07T11:43:30.904Z,69.67
2022-10-07T11:44:30.069Z,66.39
2022-10-07T11:45:38.234Z,66.09
2022-10-07T11:46:30.785Z,65.73
2022-10-07T11:47:30.331Z,65.75
2022-10-07T11:48:30.191Z,70.81
2022-10-07T11:49:30.322Z,66.59
2022-10-07T11:50:30.203Z,66.87
2022-10-07T11:51:30.259Z,67.71
2022-10-07T11:52:30.272Z,68.86
2022-10-07T11:53:30.171Z,69.44
2022-10-07T11:54:30.404Z,66.77
2022-10-07T11:55:31.220Z,71.45
2022-10-07T11:56:30.176Z,67.56
2022-10-07T11:57:30.217Z,69.72
2022-10-07T11:58:30.390Z,63.89
2022-10-07T11:59:30.227Z,68.52
2022-10-07T12:00:30.408Z,68.79
2022-10-07T12:01:30.467Z,69.59
2022-10-07T12:02:30.760Z,66.77
2022-10-07T12:03:31.206Z,66.79
2022-10-07T12:04:30.964Z,64.17
2022-10-07T12:05:30.543Z,65.50
2022-10-07T12:06:30.722Z,68.90
2022-10-07T12:07:30.980Z,67.22
2022-10-07T12:08:33.099Z,62.68
2022-10-07T12:09:31.331Z,69.08
2022-10-07T12:10:31.813Z,69.41
2022-10-07T12:11:32.973Z,67.42
2022-10-07T12:12:32.584Z,66.44
2022-10-07T12:13:31.124Z,69.06
2022-10-07T12:14:32.078Z,66.65
2022-10-07T12:15:34.286Z,65.51
2022-10-07T12:16:35.755Z,68.11
2022-10-07T12:17:32.976Z,68.03
2022-10-07T12:18:32.659Z,66.95
2022-10-07T12:19:34.278Z,70.08
2022-10-07T12:20:32.311Z,65.66
2022-10-07T12:21:33.776Z,66.99
2022-10-07T12:22:31.829Z,67.89
2022-10-07T12:23:31.174Z,65.75
2022-10-07T12:24:31.870Z,66.61
2022-10-07T12:25:31.781Z,70.78
2022-10-07T12:26:30.122Z,66.85
2022-10-07T12:27:30.352Z,70.00
2022-10-07T12:28:30.425Z,70.33
2022-10-07T12:29:32.467Z,68.98
2022-10-07T12:30:33.248Z,71.07
2022-10-07T12:31:31.526Z,68.40
2022-10-07T12:32:33.331Z,67.52
2022-10-07T12:33:33.141Z,69.71
2022-10-07T12:34:31.640Z,69.05
2022-10-07T12:35:32.403Z,70.85
2022-10-07T12:36:33.196Z,65.76
2022-10-07T12:37:33.215Z,66.97
2022-10-07T12:38:31.836Z,68.68
2022-10-07T12:39:32.812Z,67.28
2022-10-07T12:40:31.737Z,67.63
2022-10-07T12:41:31.491Z,69.46
2022-10-07T12:42:32.313Z,71.32
2022-10-07T12:43:33.190Z,67.81
2022-10-07T12:44:34.588Z,66.71
2022-10-07T12:45:35.193Z,65.55
2022-10-07T12:46:40.402Z,67.95
2022-10-07T12:47:29.995Z,66.61
2022-10-07T12:48:29.219Z,68.15
2022-10-07T12:49:29.168Z,65.66
2022-10-07T12:50:29.185Z,67.68
2022-10-07T12:51:29.130Z,69.55
2022-10-07T12:52:29.115Z,67.65
2022-10-07T12:53:29.183Z,67.69
2022-10-07T12:54:29.105Z,69.77
2022-10-07T12:55:29.785Z,65.61